ADDS METAR Data INFO
IDs: Format: Raw Decoded Include TAF

Data at: 1112 UTC 13 Dec 2017

KBYI 131053Z AUTO 00000KT 3/4SM HZ VV002 M06/M08 A3039 RMK AO2 SLP324 I1000 T10561083 $
KBYI 131042Z AUTO 00000KT 3/4SM HZ VV002 M06/M08 A3039 RMK AO2 I1000 T10561083 $
KBYI 131016Z AUTO VRB03KT 1 1/4SM HZ OVC002 M06/M08 A3039 RMK AO2 T10561083 $
KBYI 130953Z AUTO 32003KT 1/2SM FZFG VV002 M06/M08 A3039 RMK AO2 SLP329 I1000 T10611083 $
KBYI 130853Z AUTO 20005KT 1/2SM FZFG VV002 M06/M08 A3039 RMK AO2 SLP327 I1000 I3000 T10611083 58009 $
KBYI 130814Z AUTO 00000KT 3/4SM BR VV002 M06/M08 A3040 RMK AO2 T10611083 $
KBYI 130753Z AUTO 00000KT 1SM BR VV002 M06/M08 A3040 RMK AO2 SLP332 I1000 T10611083 $
KBYI 130653Z AUTO 02004KT 1 1/2SM HZ OVC002 M06/M08 A3041 RMK AO2 SLP337 T10561083 410331072 $
KBYI 130625Z AUTO 35003KT 2 1/2SM BR OVC002 M06/M08 A3041 RMK AO2 T10561078 $
KBYI 130618Z AUTO 33004KT 1 3/4SM BR OVC002 M06/M08 A3042 RMK AO2 T10561078 $
KBYI 130601Z AUTO 00000KT 2SM BR OVC002 M06/M08 A3042 RMK AO2 T10561078 $
KBYI 130553Z AUTO 00000KT 1 3/4SM BR OVC002 M06/M08 A3042 RMK AO2 SLP340 I1001 I6001 T10561078 11050 21061 58012 $
KBYI 130520Z AUTO 21004KT 3/4SM BR VV002 M06/M08 A3042 RMK AO2 I1000 T10561078 $
KBYI 130508Z AUTO 25003KT 1 1/4SM BR OVC002 M06/M08 A3042 RMK AO2 T10561078 $
KBYI 130453Z AUTO 20004KT 1/2SM FZFG VV002 M06/M08 A3043 RMK AO2 SLP346 T10561078 $
KBYI 130353Z AUTO 35003KT 1/2SM HZ VV002 M06/M08 A3046 RMK AO2 SLP357 T10561083 FZRANO $
KBYI 130253Z AUTO 29004KT 1/4SM FZFG VV002 M06/M08 A3046 RMK AO2 SLP356 I1000 I3000 T10561078 51004 FZRANO $
KBYI 130153Z AUTO 27004KT 1/4SM FZFG VV002 M06/M08 A3045 RMK AO2 SLP354 T10561078 FZRANO $
KBYI 130053Z AUTO 28005KT 1/2SM FZFG VV002 M05/M07 A3047 RMK AO2 SLP358 T10501072 FZRANO $
KBYI 122353Z AUTO 26006KT 1/2SM FZFG VV002 M04/M07 A3045 RMK AO2 SLP349 T10441067 11033 21061 55013 FZRANO $
KBYI 122338Z AUTO 27006KT 3/4SM BR OVC002 M04/M06 A3045 RMK AO2 T10391061 FZRANO $
KBYI 122326Z AUTO 31007KT 1 1/4SM BR OVC003 M04/M06 A3045 RMK AO2 T10391061 FZRANO $
KBYI 122311Z AUTO VRB03KT 2 1/2SM BR OVC003 M04/M06 A3044 RMK AO2 T10391061 FZRANO $
KBYI 122253Z AUTO 28003KT 3SM BR OVC003 M04/M06 A3044 RMK AO2 SLP347 T10391061 FZRANO $
KBYI 122232Z AUTO 20003KT 3SM BR OVC003 M04/M06 A3045 RMK AO2 T10391061 FZRANO $
KBYI 122223Z AUTO 23004KT 2 1/2SM BR OVC002 M04/M06 A3045 RMK AO2 T10391061 FZRANO $
KBYI 122153Z AUTO 18004KT 1 3/4SM BR OVC003 M04/M06 A3045 RMK AO2 SLP350 T10391061 FZRANO $
KBYI 122143Z AUTO 21006KT 1 1/2SM BR OVC003 M04/M06 A3046 RMK AO2 T10391061 FZRANO
KBYI 122133Z AUTO 18004KT 2SM BR OVC003 M04/M07 A3047 RMK AO2 T10441067 FZRANO
KBYI 122113Z AUTO 25003KT 1 1/2SM HZ OVC003 M04/M07 A3048 RMK AO2 T10391067 FZRANO
KBYI 122053Z AUTO 00000KT 2SM HZ OVC003 M04/M07 A3049 RMK AO2 SLP362 T10391067 58026 FZRANO
KBYI 122029Z AUTO 00000KT 2SM BR OVC003 M04/M07 A3050 RMK AO2 T10441067 FZRANO
KBYI 122017Z AUTO 22003KT 1 1/2SM BR OVC002 M04/M07 A3051 RMK AO2 T10441067 FZRANO
KBYI 121953Z AUTO 21003KT 1/2SM FZFG VV002 M04/M07 A3053 RMK AO2 SLP377 T10441067 FZRANO
KBYI 121935Z AUTO 00000KT 1/2SM FZFG OVC002 M05/M07 A3053 RMK AO2 T10501072 FZRANO
KBYI 121900Z AUTO 00000KT 1SM BR OVC002 M05/M07 A3054 RMK AO2 T10501067 FZRANO $
KBYI 121853Z AUTO 00000KT 3/4SM BR OVC002 M05/M07 A3055 RMK AO2 SLP386 T10501072 FZRANO $
KBYI 121753Z AUTO 00000KT 1/2SM FZFG VV002 M06/M08 A3058 RMK AO2 SLP397 60000 I6002 T10611083 11056 21072 58001 FZRANO $
KBYI 121653Z AUTO 00000KT 1/4SM FZFG VV002 M07/M08 A3059 RMK AO2 SNE1557 SLP405 P0000 T10671083 FZRANO $
KBYI 121553Z AUTO 00000KT 1/4SM -SN FZFG VV002 M07/M09 A3058 RMK AO2 SNB46 SLP400 P0000 I1001 T10671089
KBYI 121537Z AUTO 20003KT 1/4SM FZFG VV002 M07/M08 A3058 RMK AO2 I1001 T10671083
KBYI 121507Z AUTO 00000KT 1/4SM FZFG M07/M09 A3058 RMK AO2 I1000 T10671089
KBYI 121453Z AUTO 00000KT 1/4SM FZFG VV002 M07/M08 A3058 RMK AO2 SLP396 I1000 I3001 T10671083 53004
KBYI 121353Z AUTO 04003KT 1/2SM FZFG VV002 M07/M08 A3056 RMK AO2 SLP389 I1000 T10671083 $
KBYI 121253Z AUTO 00000KT 1/4SM FZFG VV002 M07/M09 A3056 RMK AO2 SLP383 I1001 T10721094 $
KBYI 121153Z AUTO 17004KT 1/4SM FZFG VV002 M07/M09 A3056 RMK AO2 SLP379 T10671089 11061 21067 58006 $
KBYI 121105Z AUTO 00000KT 1/4SM FZFG VV002 M06/M08 A3058 RMK AO2 T10611078 $
KBYI 121053Z AUTO 00000KT 1/4SM FZFG M06/M08 A3058 RMK AO2 SLP381 T10611078 $
KBYI 121024Z AUTO 1/4SM FZFG M07/M08 A3058 RMK AO2 T10671083 PWINO FZRANO $
KBYI 121013Z AUTO 1/4SM FZFG VV002 M07/M08 A3058 RMK AO2 T10671083 $
KBYI 120953Z AUTO 1/4SM FZFG M07/M08 A3059 RMK AO2 SLP384 T10671083 $
KBYI 120943Z AUTO 1/4SM FZFG M07/M08 A3059 RMK AO2 T10671083 $
KBYI 120853Z AUTO 00000KT 1/4SM FZFG VV001 M07/M08 A3058 RMK AO2 SLP384 T10671083 53001 FZRANO $
KBYI 120753Z AUTO 00000KT 1/4SM FZFG VV002 M07/M08 A3058 RMK AO2 SLP390 T10671083 FZRANO $
KBYI 120653Z AUTO 00000KT 1/4SM FZFG VV001 M06/M08 A3058 RMK AO2 SLP392 T10611078 400331094 FZRANO $
KBYI 120553Z AUTO 00000KT 1/4SM FZFG VV001 M07/M08 A3058 RMK AO2 SLP397 T10671078 10017 21067 53005 FZRANO $
KBYI 120453Z AUTO 28004KT 1/4SM FZFG VV001 M07/M07 A3057 RMK AO2 SLP397 T10671072 FZRANO $
KBYI 120420Z AUTO 28003KT 1/2SM FZFG VV001 M06/M08 A3057 RMK AO2 T10611078 FZRANO $
KBYI 120412Z AUTO 28004KT 1SM BR VV001 M06/M08 A3057 RMK AO2 T10611078 FZRANO $
KBYI 120406Z AUTO 27005KT 2 1/2SM BR FEW002 M06/M08 A3057 RMK AO2 T10611078 FZRANO $
KBYI 120353Z AUTO 26004KT 4SM BR CLR M06/M08 A3057 RMK AO2 SLP396 T10611078 FZRANO $
KBYI 120337Z AUTO 26004KT 5SM BR CLR M06/M08 A3057 RMK AO2 T10611078 FZRANO $
KBYI 120253Z AUTO 29005KT 7SM CLR M05/M07 A3056 RMK AO2 SLP395 T10501067 51014 FZRANO $
KBYI 120153Z AUTO 28004KT 7SM CLR M04/M07 A3055 RMK AO2 SLP388 T10391067 FZRANO $
KBYI 120053Z AUTO 29004KT 10SM CLR M01/M05 A3054 RMK AO2 SLP377 T10111050 FZRANO $
KBYI 112353Z AUTO 00000KT 10SM CLR 02/M06 A3052 RMK AO2 SLP367 T00171056 10033 21050 55003 FZRANO $